Time;durP1;ratioP1;P1;durP2;ratioP2;P2;SDS_P1;SDS_P2;PMS_P1;PMS_P2;Temp;Humidity;BMP_temperature;BMP_pressure;BME280_temperature;BME280_humidity;BME280_pressure;Samples;Min_cycle;Max_cycle;Signal;HPM_P1;HPM_P2
2022/03/07 00:00:57;;;;;;;2.17;1.50;;;1.90;97.80;;;;;;5051925;28;20240;-78
2022/03/07 00:03:25;;;;;;;1.00;1.00;;;1.90;97.70;;;;;;5049181;28;20861;-77
2022/03/07 00:05:50;;;;;;;1.17;1.07;;;1.90;97.80;;;;;;5054557;28;20207;-77
2022/03/07 00:08:16;;;;;;;0.83;0.83;;;1.90;97.80;;;;;;5054850;28;20273;-78
2022/03/07 00:10:42;;;;;;;1.60;1.57;;;2.00;97.80;;;;;;5056637;28;20631;-78
2022/03/07 00:13:07;;;;;;;0.90;0.90;;;2.00;97.70;;;;;;5054684;28;20262;-77
2022/03/07 00:15:33;;;;;;;1.13;1.03;;;2.00;97.70;;;;;;5053009;28;20966;-77
2022/03/07 00:17:59;;;;;;;2.33;1.63;;;2.00;97.60;;;;;;5054030;28;20808;-77
2022/03/07 00:20:24;;;;;;;1.80;1.27;;;2.00;97.70;;;;;;5055571;28;20209;-77
2022/03/07 00:22:50;;;;;;;1.30;1.20;;;2.00;97.60;;;;;;5056460;28;20270;-77
2022/03/07 00:25:17;;;;;;;2.03;1.07;;;2.00;97.60;;;;;;5055849;28;20734;-77
2022/03/07 00:27:42;;;;;;;1.23;1.00;;;2.00;97.50;;;;;;5054673;28;20219;-77
2022/03/07 00:30:09;;;;;;;1.57;1.30;;;1.90;97.50;;;;;;5054114;28;20171;-78
2022/03/07 00:32:35;;;;;;;0.90;0.90;;;1.90;97.50;;;;;;5051883;28;20672;-78
2022/03/07 00:35:01;;;;;;;1.50;1.40;;;1.90;97.50;;;;;;5053997;28;20183;-77
2022/03/07 00:37:27;;;;;;;1.90;1.17;;;1.90;97.40;;;;;;5052976;28;20195;-77
2022/03/07 00:39:53;;;;;;;1.53;1.43;;;1.90;97.50;;;;;;5060042;28;20174;-78
2022/03/07 00:42:18;;;;;;;1.57;1.47;;;1.90;97.50;;;;;;5053591;28;20179;-77
2022/03/07 00:44:44;;;;;;;1.90;1.50;;;1.80;97.50;;;;;;5053204;28;20179;-77
2022/03/07 00:47:10;;;;;;;1.20;1.20;;;1.90;97.60;;;;;;5050686;28;20286;-77
2022/03/07 00:49:35;;;;;;;2.63;1.47;;;1.90;97.70;;;;;;5055564;28;20199;-77
2022/03/07 00:52:01;;;;;;;1.70;1.07;;;1.90;97.70;;;;;;5052600;28;20188;-77
2022/03/07 00:54:27;;;;;;;1.53;1.43;;;1.80;97.80;;;;;;5052280;28;20179;-78
2022/03/07 00:56:53;;;;;;;1.70;1.60;;;1.80;97.80;;;;;;5054365;28;20245;-77
2022/03/07 00:59:18;;;;;;;1.83;1.33;;;1.90;97.80;;;;;;5054394;28;20199;-77
2022/03/07 01:01:44;;;;;;;1.67;1.17;;;1.90;97.80;;;;;;5055165;28;20194;-78
2022/03/07 01:04:10;;;;;;;1.90;1.80;;;1.90;97.80;;;;;;5054137;28;20829;-78
2022/03/07 01:06:35;;;;;;;2.73;1.50;;;1.90;97.80;;;;;;5051406;28;20216;-78
2022/03/07 01:09:01;;;;;;;2.43;1.77;;;1.90;97.80;;;;;;5050026;28;20677;-78
2022/03/07 01:11:27;;;;;;;1.93;1.63;;;1.90;97.80;;;;;;5050421;28;20211;-79
2022/03/07 01:13:53;;;;;;;2.87;1.90;;;1.90;97.70;;;;;;5051218;28;20186;-78
2022/03/07 01:16:18;;;;;;;1.27;1.17;;;1.90;97.60;;;;;;5049491;28;20313;-78
2022/03/07 01:18:44;;;;;;;1.40;1.30;;;1.90;97.70;;;;;;5051551;28;20604;-78
2022/03/07 01:21:10;;;;;;;1.37;1.27;;;2.00;97.70;;;;;;5054526;28;20183;-77
2022/03/07 01:23:35;;;;;;;1.60;1.50;;;2.00;97.70;;;;;;5053453;28;21131;-78
2022/03/07 01:26:02;;;;;;;1.77;1.67;;;2.00;97.60;;;;;;5052703;28;20222;-78
2022/03/07 01:28:27;;;;;;;3.30;1.77;;;2.00;97.60;;;;;;5048598;28;20206;-78
2022/03/07 01:30:53;;;;;;;2.63;1.43;;;2.00;97.60;;;;;;5048895;28;20923;-78
2022/03/07 01:33:19;;;;;;;3.37;2.13;;;2.00;97.50;;;;;;5052399;28;20175;-78
2022/03/07 01:35:44;;;;;;;2.30;1.43;;;1.90;97.50;;;;;;5050723;28;20187;-78
2022/03/07 01:38:11;;;;;;;1.07;1.00;;;1.90;97.60;;;;;;5059657;28;20665;-78
2022/03/07 01:40:36;;;;;;;1.80;1.70;;;1.90;97.60;;;;;;5057159;28;20653;-78
2022/03/07 01:43:02;;;;;;;1.30;1.03;;;1.90;97.60;;;;;;5050879;28;20194;-78
2022/03/07 01:45:28;;;;;;;1.57;1.50;;;1.90;97.60;;;;;;5048837;28;20182;-78
2022/03/07 01:47:54;;;;;;;1.00;1.00;;;1.90;97.50;;;;;;5058641;28;20260;-78
2022/03/07 01:50:20;;;;;;;1.20;1.10;;;1.80;97.60;;;;;;5045275;28;20915;-78
2022/03/07 01:52:50;;;;;;;1.50;1.20;;;1.80;97.60;;;;;;5049682;28;20262;-77
2022/03/07 01:55:17;;;;;;;1.03;1.03;;;1.80;97.60;;;;;;5050112;28;20186;-78
2022/03/07 01:57:44;;;;;;;1.27;1.00;;;1.80;97.60;;;;;;5055490;28;20179;-78
2022/03/07 02:00:14;;;;;;;1.30;1.30;;;1.80;97.60;;;;;;5050620;28;20183;-78
2022/03/07 02:02:41;;;;;;;1.20;1.10;;;1.80;97.60;;;;;;5053309;28;20809;-77
2022/03/07 02:05:08;;;;;;;1.70;1.60;;;1.80;97.60;;;;;;5052993;28;20195;-77
2022/03/07 02:07:33;;;;;;;1.50;1.50;;;1.80;97.60;;;;;;5051600;28;20211;-78
2022/03/07 02:10:00;;;;;;;1.30;1.20;;;1.80;97.60;;;;;;5055620;28;20183;-77
2022/03/07 02:12:26;;;;;;;1.80;1.33;;;1.80;97.60;;;;;;5050937;28;20958;-78
2022/03/07 02:14:51;;;;;;;1.43;1.33;;;1.80;97.60;;;;;;5050172;28;20179;-78
2022/03/07 02:17:17;;;;;;;1.37;1.27;;;1.80;97.60;;;;;;5056011;28;20262;-78
2022/03/07 02:19:43;;;;;;;1.53;1.50;;;1.80;97.60;;;;;;5054940;28;20710;-77
2022/03/07 02:22:10;;;;;;;1.33;1.07;;;1.80;97.70;;;;;;5052946;28;20174;-77
2022/03/07 02:24:37;;;;;;;1.20;1.10;;;1.80;97.60;;;;;;5053414;28;20180;-78
2022/03/07 02:27:05;;;;;;;1.10;1.00;;;1.80;97.60;;;;;;5048204;28;20207;-77
2022/03/07 02:29:32;;;;;;;4.63;1.63;;;1.80;97.50;;;;;;5057158;28;20194;-77
2022/03/07 02:31:58;;;;;;;2.23;1.30;;;1.70;97.50;;;;;;5041415;28;20183;-78
2022/03/07 02:34:25;;;;;;;1.37;1.37;;;1.70;97.60;;;;;;5056402;28;20262;-78
2022/03/07 02:36:51;;;;;;;1.20;0.97;;;1.80;97.60;;;;;;5052088;28;20192;-78
2022/03/07 02:39:17;;;;;;;1.63;1.53;;;1.80;97.70;;;;;;5051129;28;20656;-78
2022/03/07 02:41:44;;;;;;;0.90;0.90;;;1.80;97.80;;;;;;5047504;28;20206;-78
2022/03/07 02:44:10;;;;;;;1.10;1.10;;;1.80;97.80;;;;;;5049868;28;20301;-77
2022/03/07 02:46:36;;;;;;;0.97;0.97;;;1.80;97.80;;;;;;5054481;28;21050;-78
2022/03/07 02:49:03;;;;;;;1.13;1.10;;;1.80;97.70;;;;;;5052788;28;20655;-78
2022/03/07 02:51:29;;;;;;;1.10;1.03;;;1.80;97.70;;;;;;5054968;28;20208;-78
2022/03/07 02:53:55;;;;;;;1.27;1.07;;;1.80;97.60;;;;;;5049044;28;20988;-78
2022/03/07 02:56:21;;;;;;;0.87;0.87;;;1.80;97.60;;;;;;5051375;28;20272;-78
2022/03/07 02:58:46;;;;;;;2.17;1.50;;;1.80;97.70;;;;;;5050248;28;20175;-78
2022/03/07 03:01:12;;;;;;;1.87;1.53;;;1.80;97.70;;;;;;5055093;28;20196;-78
2022/03/07 03:03:38;;;;;;;1.20;1.20;;;1.90;97.50;;;;;;5056387;28;20187;-78
2022/03/07 03:06:04;;;;;;;1.73;1.43;;;1.80;97.50;;;;;;5061268;28;20250;-78
2022/03/07 03:08:29;;;;;;;1.80;1.03;;;1.80;97.50;;;;;;5055566;28;20336;-78
2022/03/07 03:10:57;;;;;;;0.90;0.90;;;1.80;97.50;;;;;;5054330;28;20273;-79
2022/03/07 03:13:23;;;;;;;1.23;1.07;;;1.80;97.50;;;;;;5054368;28;20455;-78
2022/03/07 03:15:50;;;;;;;1.47;1.30;;;1.80;97.50;;;;;;5049129;28;20723;-77
2022/03/07 03:18:17;;;;;;;1.00;1.00;;;1.80;97.50;;;;;;5053998;28;20275;-77
2022/03/07 03:20:45;;;;;;;0.80;0.80;;;1.80;97.50;;;;;;5052935;28;20180;-78
2022/03/07 03:23:11;;;;;;;1.00;0.90;;;1.80;97.60;;;;;;5059480;28;20217;-78
2022/03/07 03:25:37;;;;;;;0.83;0.73;;;1.80;97.70;;;;;;5053971;28;20199;-78
2022/03/07 03:28:04;;;;;;;0.87;0.87;;;1.80;97.70;;;;;;5052466;28;20633;-78
2022/03/07 03:30:29;;;;;;;1.10;1.07;;;1.80;97.70;;;;;;5053311;28;20195;-78
2022/03/07 03:32:55;;;;;;;1.90;0.90;;;1.80;97.80;;;;;;5052888;28;20178;-78
2022/03/07 03:35:21;;;;;;;1.10;1.10;;;1.90;97.80;;;;;;5056190;28;20267;-78
2022/03/07 03:37:47;;;;;;;1.27;1.17;;;1.90;97.70;;;;;;5053336;28;20699;-78
2022/03/07 03:40:13;;;;;;;1.07;1.07;;;1.80;97.50;;;;;;5059578;28;20180;-77
2022/03/07 03:42:40;;;;;;;1.20;1.10;;;1.80;97.40;;;;;;5058160;28;20588;-77
2022/03/07 03:45:08;;;;;;;1.90;1.00;;;1.80;97.50;;;;;;5051659;28;20187;-77
2022/03/07 03:47:38;;;;;;;1.10;1.03;;;1.80;97.60;;;;;;5047714;28;20223;-77
2022/03/07 03:50:06;;;;;;;0.93;0.93;;;1.80;97.60;;;;;;5052568;28;20241;-77
2022/03/07 03:52:31;;;;;;;1.43;0.97;;;1.80;97.60;;;;;;5051102;28;20310;-77
2022/03/07 03:54:57;;;;;;;1.47;1.03;;;1.80;97.70;;;;;;5056864;28;20258;-78
2022/03/07 03:57:23;;;;;;;0.90;0.80;;;1.80;97.60;;;;;;5053702;28;20619;-77
2022/03/07 03:59:49;;;;;;;0.93;0.93;;;1.80;97.60;;;;;;5053638;28;20184;-77
2022/03/07 04:02:15;;;;;;;1.00;1.00;;;1.80;97.60;;;;;;5051622;28;20212;-77
2022/03/07 04:04:41;;;;;;;0.80;0.80;;;1.80;97.70;;;;;;5052481;28;20186;-77
2022/03/07 04:07:06;;;;;;;0.80;0.80;;;1.70;97.50;;;;;;5057807;28;21079;-77
2022/03/07 04:09:32;;;;;;;0.97;0.97;;;1.70;97.50;;;;;;5047038;28;20188;-77
2022/03/07 04:11:58;;;;;;;1.27;0.60;;;1.70;97.60;;;;;;5059083;28;20592;-77
2022/03/07 04:14:24;;;;;;;0.73;0.73;;;1.80;97.60;;;;;;5053895;28;20182;-76
2022/03/07 04:16:50;;;;;;;0.93;0.90;;;1.70;97.60;;;;;;5047567;28;20190;-77
2022/03/07 04:19:15;;;;;;;1.80;1.10;;;1.70;97.60;;;;;;5054179;28;20191;-77
2022/03/07 04:21:42;;;;;;;0.77;0.77;;;1.70;97.40;;;;;;5053521;28;20175;-77
2022/03/07 04:24:10;;;;;;;0.60;0.60;;;1.70;97.30;;;;;;5052185;28;20199;-77
2022/03/07 04:26:36;;;;;;;0.67;0.67;;;1.70;97.30;;;;;;5055590;28;20290;-77
2022/03/07 04:29:08;;;;;;;1.80;1.20;;;1.70;97.40;;;;;;5052789;28;20219;-77
2022/03/07 04:31:41;;;;;;;0.70;0.70;;;1.70;97.30;;;;;;5048891;28;20188;-77
2022/03/07 04:34:08;;;;;;;1.20;0.87;;;1.70;97.50;;;;;;5055140;28;20219;-77
2022/03/07 04:36:36;;;;;;;0.93;0.93;;;1.70;97.20;;;;;;5051951;28;20194;-77
2022/03/07 04:39:04;;;;;;;0.93;0.90;;;1.70;97.20;;;;;;5056852;28;20186;-77
2022/03/07 04:41:30;;;;;;;1.30;1.03;;;1.70;97.10;;;;;;5051386;28;20606;-77
2022/03/07 04:43:56;;;;;;;0.80;0.80;;;1.70;97.10;;;;;;5049368;28;20955;-77
2022/03/07 04:46:21;;;;;;;1.20;1.20;;;1.70;97.10;;;;;;5055849;28;20207;-78
2022/03/07 04:48:47;;;;;;;0.83;0.83;;;1.70;97.30;;;;;;5052668;28;20235;-77
2022/03/07 04:51:13;;;;;;;1.07;1.07;;;1.70;97.40;;;;;;5055222;28;20244;-78
2022/03/07 04:53:40;;;;;;;1.27;1.17;;;1.70;97.10;;;;;;5053716;28;20182;-77
2022/03/07 04:56:06;;;;;;;1.57;1.10;;;1.60;97.30;;;;;;5052827;28;20195;-77
2022/03/07 04:58:31;;;;;;;1.00;1.00;;;1.70;97.50;;;;;;5050613;28;20242;-77
2022/03/07 05:00:57;;;;;;;0.97;0.97;;;1.70;97.60;;;;;;5053792;28;20183;-77
2022/03/07 05:03:23;;;;;;;0.90;0.90;;;1.70;97.60;;;;;;5055258;28;20229;-77
2022/03/07 05:05:50;;;;;;;0.93;0.93;;;1.80;97.60;;;;;;5053862;28;20190;-77
2022/03/07 05:08:16;;;;;;;1.40;1.23;;;1.80;97.50;;;;;;5057326;28;20187;-77
2022/03/07 05:10:42;;;;;;;0.80;0.77;;;1.80;97.60;;;;;;5051870;28;20258;-77
2022/03/07 05:13:09;;;;;;;0.90;0.90;;;1.80;97.60;;;;;;5054022;28;20267;-77
2022/03/07 05:15:34;;;;;;;1.67;0.70;;;1.80;97.60;;;;;;5050247;28;20792;-77
2022/03/07 05:18:00;;;;;;;1.00;1.00;;;1.90;97.50;;;;;;5054082;28;20260;-77
2022/03/07 05:20:26;;;;;;;1.13;1.10;;;1.90;97.50;;;;;;5054742;28;20194;-77
2022/03/07 05:22:53;;;;;;;1.10;1.10;;;2.00;97.40;;;;;;5050215;28;20183;-77
2022/03/07 05:25:20;;;;;;;1.10;1.00;;;2.00;97.30;;;;;;5053073;28;20171;-77
2022/03/07 05:27:46;;;;;;;1.10;1.10;;;2.00;97.30;;;;;;5052570;28;20203;-78
2022/03/07 05:30:15;;;;;;;1.50;1.33;;;2.00;97.30;;;;;;5050707;28;20198;-76
2022/03/07 05:32:43;;;;;;;1.10;1.10;;;2.00;97.20;;;;;;5058025;28;20232;-76
2022/03/07 05:35:09;;;;;;;1.97;1.43;;;2.00;97.20;;;;;;5052883;28;20190;-79
2022/03/07 05:37:36;;;;;;;1.60;1.50;;;2.00;97.20;;;;;;5053775;28;20182;-76
2022/03/07 05:40:02;;;;;;;1.87;1.77;;;2.00;97.10;;;;;;5051306;28;20608;-76
2022/03/07 05:42:28;;;;;;;2.67;2.50;;;2.00;97.10;;;;;;5048988;28;20183;-76
2022/03/07 05:44:53;;;;;;;2.87;1.60;;;2.00;97.10;;;;;;5053122;28;20192;-76
2022/03/07 05:47:19;;;;;;;5.07;2.40;;;2.00;97.10;;;;;;5047948;28;20216;-74
2022/03/07 05:49:45;;;;;;;1.83;1.73;;;2.00;97.30;;;;;;5049541;28;20573;-76
2022/03/07 05:52:10;;;;;;;1.53;1.43;;;2.10;97.40;;;;;;5050313;28;20237;-76
2022/03/07 05:54:36;;;;;;;1.77;1.33;;;2.10;97.30;;;;;;5054550;28;20810;-75
2022/03/07 05:57:02;;;;;;;1.27;1.17;;;2.10;97.30;;;;;;5049686;28;20183;-74
2022/03/07 05:59:28;;;;;;;1.80;1.67;;;2.20;97.30;;;;;;5052113;28;20214;-76
2022/03/07 06:01:53;;;;;;;1.27;1.23;;;2.20;97.20;;;;;;5043328;28;20187;-76
2022/03/07 06:04:19;;;;;;;2.67;1.73;;;2.20;97.00;;;;;;5047356;28;20184;-76
2022/03/07 06:06:45;;;;;;;2.20;1.30;;;2.20;96.80;;;;;;5046912;28;20280;-76
2022/03/07 06:09:11;;;;;;;1.40;1.30;;;2.20;97.00;;;;;;5053839;28;20289;-75
2022/03/07 06:11:37;;;;;;;2.20;1.67;;;2.30;96.90;;;;;;5047607;28;20262;-75
2022/03/07 06:14:02;;;;;;;1.57;1.50;;;2.20;96.90;;;;;;5047052;28;20639;-75
2022/03/07 06:16:28;;;;;;;2.10;1.70;;;2.30;97.00;;;;;;5046830;28;20275;-75
2022/03/07 06:18:54;;;;;;;1.27;1.27;;;2.30;97.00;;;;;;5045569;28;20175;-75
2022/03/07 06:21:19;;;;;;;1.83;1.73;;;2.30;96.90;;;;;;5053911;28;20183;-74
2022/03/07 06:23:45;;;;;;;1.50;1.43;;;2.30;96.80;;;;;;5051044;28;20267;-74
2022/03/07 06:26:11;;;;;;;2.00;1.90;;;2.40;96.80;;;;;;5050146;28;20261;-75
2022/03/07 06:28:36;;;;;;;1.87;1.73;;;2.40;96.90;;;;;;5052822;28;20190;-73
2022/03/07 06:31:02;;;;;;;1.90;1.80;;;2.50;96.90;;;;;;5049235;28;20531;-73
2022/03/07 06:33:28;;;;;;;2.10;1.93;;;2.50;96.70;;;;;;5052730;28;20178;-77
2022/03/07 06:35:54;;;;;;;3.97;2.07;;;2.50;96.70;;;;;;5050443;28;20188;-79
2022/03/07 06:38:21;;;;;;;4.50;1.87;;;2.60;96.70;;;;;;5049966;28;20175;-75
2022/03/07 06:40:47;;;;;;;1.57;1.50;;;2.60;96.80;;;;;;5048718;28;20667;-76
2022/03/07 06:43:13;;;;;;;2.37;2.27;;;2.70;96.60;;;;;;5052849;28;20688;-77
2022/03/07 06:45:39;;;;;;;2.40;2.20;;;2.70;96.70;;;;;;5048258;28;20176;-76
2022/03/07 06:48:06;;;;;;;2.90;2.50;;;2.70;96.60;;;;;;5054144;28;20215;-75
2022/03/07 06:50:32;;;;;;;2.43;2.33;;;2.80;96.60;;;;;;5050972;28;20280;-75
2022/03/07 06:52:58;;;;;;;3.43;2.50;;;2.80;96.50;;;;;;5049763;28;20175;-75
2022/03/07 06:55:24;;;;;;;3.37;3.10;;;2.90;96.50;;;;;;5051501;28;20287;-76
2022/03/07 06:57:50;;;;;;;4.27;2.63;;;2.90;96.30;;;;;;5050713;28;20208;-76
2022/03/07 07:00:17;;;;;;;3.07;2.67;;;3.00;96.20;;;;;;5050625;28;20179;-77
2022/03/07 07:02:44;;;;;;;3.33;2.50;;;3.00;96.40;;;;;;5047821;28;20183;-77
2022/03/07 07:05:10;;;;;;;2.50;2.30;;;3.10;96.20;;;;;;5050499;28;20266;-74
2022/03/07 07:07:37;;;;;;;2.80;2.60;;;3.10;96.00;;;;;;5053704;28;20210;-74
2022/03/07 07:10:05;;;;;;;2.63;2.43;;;3.20;95.90;;;;;;5054291;28;20687;-73
2022/03/07 07:12:31;;;;;;;2.90;2.70;;;3.30;95.70;;;;;;5060638;28;20575;-74
2022/03/07 07:14:57;;;;;;;2.97;2.77;;;3.30;95.80;;;;;;5053838;28;20187;-74
2022/03/07 07:17:22;;;;;;;2.27;2.17;;;3.40;95.10;;;;;;5051235;28;20186;-73
2022/03/07 07:19:48;;;;;;;3.03;2.37;;;3.40;95.40;;;;;;5056610;28;20896;-74
2022/03/07 07:22:14;;;;;;;2.40;2.23;;;3.50;95.20;;;;;;5057466;28;20180;-74
2022/03/07 07:24:40;;;;;;;2.83;2.63;;;3.50;94.70;;;;;;5053133;28;20187;-74
2022/03/07 07:27:06;;;;;;;3.87;3.00;;;3.60;94.60;;;;;;5053252;28;20692;-74
2022/03/07 07:29:32;;;;;;;5.53;3.27;;;3.60;95.00;;;;;;5053913;28;20224;-74
2022/03/07 07:31:58;;;;;;;2.87;2.63;;;3.70;94.50;;;;;;5056599;28;20215;-74
2022/03/07 07:34:24;;;;;;;4.73;2.47;;;3.70;94.00;;;;;;5052127;28;20259;-74
2022/03/07 07:36:50;;;;;;;2.50;2.17;;;3.80;94.20;;;;;;5052530;28;20788;-74
2022/03/07 07:39:16;;;;;;;2.13;2.03;;;3.80;94.00;;;;;;5059084;28;20179;-74
2022/03/07 07:41:42;;;;;;;2.63;2.20;;;3.90;93.90;;;;;;5056187;28;20187;-74
2022/03/07 07:44:08;;;;;;;2.67;2.47;;;3.90;93.60;;;;;;5056223;28;20180;-74
2022/03/07 07:46:33;;;;;;;2.20;2.00;;;4.00;92.90;;;;;;5052623;28;20749;-74
2022/03/07 07:48:59;;;;;;;2.50;2.33;;;4.00;92.60;;;;;;5059402;28;20599;-74
2022/03/07 07:51:25;;;;;;;2.13;1.87;;;4.00;92.50;;;;;;5055428;28;20175;-74
2022/03/07 07:53:51;;;;;;;2.50;1.83;;;3.90;92.20;;;;;;5056326;28;20225;-74
2022/03/07 07:56:16;;;;;;;2.00;1.90;;;4.00;92.50;;;;;;5052726;28;20175;-74
2022/03/07 07:58:42;;;;;;;2.90;1.77;;;4.00;92.30;;;;;;5057451;28;20283;-74
2022/03/07 08:01:08;;;;;;;1.80;1.60;;;4.00;92.10;;;;;;5057532;28;20176;-75
2022/03/07 08:03:34;;;;;;;1.63;1.53;;;4.10;92.20;;;;;;5051703;28;20194;-75
2022/03/07 08:06:00;;;;;;;1.70;1.60;;;4.10;91.90;;;;;;5057676;28;20199;-75
2022/03/07 08:08:26;;;;;;;1.60;1.50;;;4.20;91.90;;;;;;5052950;28;20179;-75
2022/03/07 08:10:52;;;;;;;1.50;1.47;;;4.20;91.80;;;;;;5053397;28;20190;-75
2022/03/07 08:13:19;;;;;;;3.97;1.77;;;4.20;91.40;;;;;;5050529;28;20176;-75
2022/03/07 08:15:45;;;;;;;2.63;1.83;;;4.20;91.00;;;;;;5049387;28;20183;-75
2022/03/07 08:18:11;;;;;;;1.90;1.80;;;4.20;91.30;;;;;;5054080;28;20211;-75
2022/03/07 08:20:37;;;;;;;1.80;1.70;;;4.20;91.50;;;;;;5055371;28;20184;-74
2022/03/07 08:23:04;;;;;;;1.87;1.77;;;4.20;92.00;;;;;;5055676;28;20209;-74
2022/03/07 08:25:30;;;;;;;1.90;1.90;;;4.30;90.90;;;;;;5057540;28;20282;-74
2022/03/07 08:27:56;;;;;;;1.77;1.67;;;4.20;90.40;;;;;;5054426;28;20211;-74
2022/03/07 08:30:25;;;;;;;2.07;1.80;;;4.20;90.80;;;;;;5053784;28;20686;-74
2022/03/07 08:32:51;;;;;;;1.97;1.73;;;4.30;91.20;;;;;;5051503;28;20196;-74
2022/03/07 08:35:17;;;;;;;2.17;2.07;;;4.30;90.80;;;;;;5055368;28;20175;-73
2022/03/07 08:37:45;;;;;;;2.07;1.80;;;4.30;91.00;;;;;;5062085;28;20183;-74
2022/03/07 08:40:13;;;;;;;2.00;1.90;;;4.30;90.70;;;;;;5051675;28;20176;-74
2022/03/07 08:42:39;;;;;;;2.17;2.07;;;4.30;90.90;;;;;;5058370;28;20175;-75
2022/03/07 08:45:06;;;;;;;4.03;2.00;;;4.40;90.90;;;;;;5053325;28;20191;-74
2022/03/07 08:47:32;;;;;;;2.57;2.37;;;4.30;90.20;;;;;;5059222;28;20210;-74
2022/03/07 08:49:58;;;;;;;2.30;2.20;;;4.40;90.60;;;;;;5056514;28;20221;-74
2022/03/07 08:52:24;;;;;;;2.90;1.93;;;4.40;90.80;;;;;;5053242;28;20719;-74
2022/03/07 08:54:50;;;;;;;2.37;1.97;;;4.40;91.00;;;;;;5057188;28;20183;-74
2022/03/07 08:57:16;;;;;;;2.37;2.00;;;4.40;91.20;;;;;;5052042;28;20190;-74
2022/03/07 08:59:42;;;;;;;2.27;2.10;;;4.40;91.10;;;;;;5060036;28;20653;-74
2022/03/07 09:02:09;;;;;;;2.60;2.40;;;4.40;91.00;;;;;;5053918;28;20180;-74
2022/03/07 09:04:40;;;;;;;2.80;2.60;;;4.40;90.50;;;;;;5055676;28;20175;-75
2022/03/07 09:07:06;;;;;;;5.70;2.20;;;4.30;89.90;;;;;;5054571;28;20354;-74
2022/03/07 09:09:32;;;;;;;5.23;2.67;;;4.20;90.00;;;;;;5057253;28;20180;-74
2022/03/07 09:11:57;;;;;;;4.50;2.40;;;4.20;90.50;;;;;;5054851;28;20979;-74
2022/03/07 09:14:23;;;;;;;2.67;2.07;;;4.20;90.90;;;;;;5055456;28;20175;-76
2022/03/07 09:16:49;;;;;;;2.10;1.93;;;4.20;91.10;;;;;;5052561;28;20219;-74
2022/03/07 09:19:15;;;;;;;2.90;2.67;;;4.20;90.30;;;;;;5055286;28;20183;-74
2022/03/07 09:21:41;;;;;;;2.60;2.40;;;4.20;90.60;;;;;;5056973;28;20194;-73
2022/03/07 09:24:07;;;;;;;3.27;2.47;;;4.20;90.10;;;;;;5054782;28;20680;-74
2022/03/07 09:26:32;;;;;;;3.47;3.17;;;4.20;90.20;;;;;;5055372;28;20202;-75
2022/03/07 09:28:58;;;;;;;2.57;2.37;;;4.20;90.60;;;;;;5052829;28;20176;-75
2022/03/07 09:31:24;;;;;;;3.47;2.60;;;4.20;90.50;;;;;;5050099;28;20190;-75
2022/03/07 09:33:50;;;;;;;3.30;2.87;;;4.30;90.80;;;;;;5050407;28;20206;-75
2022/03/07 09:36:16;;;;;;;4.07;3.20;;;4.30;90.20;;;;;;5051171;28;20183;-75
2022/03/07 09:38:43;;;;;;;5.87;3.50;;;4.30;90.50;;;;;;5051755;28;20232;-74
2022/03/07 09:41:09;;;;;;;3.33;3.03;;;4.40;90.50;;;;;;5056169;28;20194;-74
2022/03/07 09:43:35;;;;;;;4.23;3.00;;;4.40;89.90;;;;;;5052622;28;20186;-76
2022/03/07 09:46:01;;;;;;;4.10;3.67;;;4.40;89.30;;;;;;5056502;28;20213;-75
2022/03/07 09:48:27;;;;;;;4.00;3.30;;;4.40;89.30;;;;;;5054176;28;20183;-74
2022/03/07 09:50:53;;;;;;;5.77;3.77;;;4.30;89.20;;;;;;5059051;28;20183;-73
2022/03/07 09:53:19;;;;;;;3.23;2.50;;;4.30;89.80;;;;;;5057048;28;20171;-75
2022/03/07 09:55:46;;;;;;;2.63;2.33;;;4.30;89.80;;;;;;5049142;28;20262;-76
2022/03/07 09:58:12;;;;;;;1.97;1.87;;;4.30;89.40;;;;;;5049027;28;20188;-75
2022/03/07 10:00:41;;;;;;;1.87;1.77;;;4.30;89.60;;;;;;5056260;28;20559;-75
2022/03/07 10:03:10;;;;;;;2.07;1.80;;;4.30;89.60;;;;;;5055692;28;20274;-76
2022/03/07 10:05:42;;;;;;;2.23;1.97;;;4.40;89.40;;;;;;5057438;28;20198;-75
2022/03/07 10:08:09;;;;;;;2.67;2.30;;;4.40;89.50;;;;;;5054282;28;20200;-76
2022/03/07 10:10:39;;;;;;;2.20;2.00;;;4.40;89.20;;;;;;5058788;28;20201;-76
2022/03/07 10:13:10;;;;;;;2.90;2.60;;;4.50;89.30;;;;;;5055310;28;20176;-75
2022/03/07 10:15:38;;;;;;;1.87;1.77;;;4.40;88.20;;;;;;5049303;28;20257;-74
2022/03/07 10:18:05;;;;;;;2.13;2.03;;;4.40;88.50;;;;;;5054982;28;20948;-74
2022/03/07 10:20:31;;;;;;;1.80;1.70;;;4.40;88.50;;;;;;5048081;28;20176;-75
2022/03/07 10:22:59;;;;;;;1.73;1.63;;;4.30;88.70;;;;;;5053920;28;20245;-75
2022/03/07 10:25:31;;;;;;;3.30;2.07;;;4.40;89.30;;;;;;5043685;28;20188;-74
2022/03/07 10:28:00;;;;;;;2.07;1.80;;;4.40;88.90;;;;;;5046590;28;20218;-76
2022/03/07 10:30:31;;;;;;;2.70;2.50;;;4.40;88.30;;;;;;5049959;28;20180;-76
2022/03/07 10:32:59;;;;;;;1.67;1.60;;;4.40;88.70;;;;;;5045834;28;20194;-76
2022/03/07 10:35:43;;;;;;;1.97;1.87;;;4.40;89.10;;;;;;5053527;28;20191;-76
2022/03/07 10:38:14;;;;;;;2.43;2.23;;;4.40;89.00;;;;;;5054569;28;20182;-74
2022/03/07 10:40:43;;;;;;;2.23;2.07;;;4.50;88.70;;;;;;5047777;28;20190;-75
2022/03/07 10:43:09;;;;;;;2.63;2.43;;;4.50;88.70;;;;;;5052849;28;20183;-75
2022/03/07 10:45:46;;;;;;;2.07;1.87;;;4.50;87.90;;;;;;5045173;28;20199;-76
2022/03/07 10:48:11;;;;;;;3.27;2.53;;;4.50;88.10;;;;;;5050730;28;20191;-75
2022/03/07 10:50:37;;;;;;;3.20;2.90;;;4.50;87.90;;;;;;5045496;28;20244;-75
2022/03/07 10:53:06;;;;;;;1.97;1.87;;;4.50;87.60;;;;;;5052538;28;20878;-74
2022/03/07 10:55:33;;;;;;;2.23;2.07;;;4.40;87.90;;;;;;5054092;28;20184;-74
2022/03/07 10:58:05;;;;;;;2.13;1.77;;;4.50;88.40;;;;;;5051447;28;20176;-75
2022/03/07 11:00:31;;;;;;;2.17;2.07;;;4.50;88.20;;;;;;5048581;28;20191;-75
2022/03/07 11:02:57;;;;;;;2.00;1.90;;;4.50;87.70;;;;;;5047803;28;20257;-76
2022/03/07 11:05:22;;;;;;;2.00;1.83;;;4.50;86.90;;;;;;5054470;28;20228;-75
2022/03/07 11:07:51;;;;;;;1.93;1.70;;;4.50;87.60;;;;;;5049997;28;20211;-75
2022/03/07 11:10:18;;;;;;;1.77;1.73;;;4.50;87.80;;;;;;5054992;28;20184;-75
2022/03/07 11:12:45;;;;;;;2.43;2.20;;;4.50;87.70;;;;;;5051977;28;20652;-75
2022/03/07 11:15:14;;;;;;;1.97;1.87;;;4.50;86.40;;;;;;5056308;28;20195;-75
2022/03/07 11:17:45;;;;;;;3.47;2.07;;;4.50;86.80;;;;;;5061823;28;20190;-75
2022/03/07 11:20:13;;;;;;;1.83;1.73;;;4.40;86.40;;;;;;5053284;28;20175;-75
2022/03/07 11:22:39;;;;;;;1.70;1.60;;;4.40;86.70;;;;;;5054260;28;20207;-75
2022/03/07 11:25:07;;;;;;;1.90;1.90;;;4.40;87.00;;;;;;5050899;28;20238;-75
2022/03/07 11:27:36;;;;;;;3.37;2.20;;;4.40;86.90;;;;;;5049520;28;20239;-75
2022/03/07 11:30:16;;;;;;;2.13;2.03;;;4.40;87.30;;;;;;5058031;28;20187;-75
2022/03/07 11:32:42;;;;;;;2.40;1.87;;;4.40;86.80;;;;;;5052611;28;20249;-75
2022/03/07 11:35:09;;;;;;;3.17;2.90;;;4.40;87.40;;;;;;5056919;28;20191;-75
2022/03/07 11:37:35;;;;;;;3.13;2.93;;;4.40;87.30;;;;;;5050661;28;20750;-75
2022/03/07 11:40:02;;;;;;;4.43;2.80;;;4.40;86.90;;;;;;5046363;28;20184;-75
2022/03/07 11:42:39;;;;;;;2.73;2.53;;;4.30;86.50;;;;;;5048718;28;20184;-75
2022/03/07 11:45:19;;;;;;;3.90;2.63;;;4.30;86.70;;;;;;5045423;28;20183;-75
2022/03/07 11:47:46;;;;;;;4.97;3.10;;;4.30;87.40;;;;;;5052649;28;20214;-75
2022/03/07 11:50:15;;;;;;;2.77;2.60;;;4.20;87.10;;;;;;5044633;28;20554;-75
2022/03/07 11:52:41;;;;;;;2.90;2.70;;;4.20;86.70;;;;;;5043860;28;20566;-75
2022/03/07 11:55:16;;;;;;;3.17;2.80;;;4.10;86.70;;;;;;5052222;28;20183;-75
2022/03/07 11:57:45;;;;;;;6.77;3.47;;;4.00;86.60;;;;;;5053185;28;20193;-75
2022/03/07 12:00:17;;;;;;;5.40;3.83;;;3.90;86.60;;;;;;5052844;28;20333;-75
2022/03/07 12:02:45;;;;;;;3.27;3.03;;;3.70;87.30;;;;;;5051597;28;20742;-76
2022/03/07 12:05:29;;;;;;;4.90;3.87;;;3.70;87.30;;;;;;5052240;28;20575;-76
2022/03/07 12:08:17;;;;;;;5.03;4.00;;;3.60;87.50;;;;;;5051328;28;20284;-75
2022/03/07 12:10:55;;;;;;;4.03;3.47;;;3.50;87.60;;;;;;5056175;28;20183;-75
2022/03/07 12:13:21;;;;;;;5.23;4.57;;;3.40;87.90;;;;;;5048173;28;20677;-75
2022/03/07 12:15:55;;;;;;;7.00;3.53;;;3.40;88.20;;;;;;5047544;28;20176;-75
2022/03/07 12:18:22;;;;;;;4.53;4.03;;;3.40;88.20;;;;;;5052778;28;20176;-75
2022/03/07 12:20:54;;;;;;;5.10;3.70;;;3.30;87.90;;;;;;5052909;28;20227;-75
2022/03/07 12:23:22;;;;;;;4.67;3.47;;;3.30;88.40;;;;;;5054505;28;20219;-75
2022/03/07 12:25:57;;;;;;;5.10;3.97;;;3.30;88.40;;;;;;5054277;28;20218;-76
2022/03/07 12:28:33;;;;;;;3.83;3.47;;;3.30;88.40;;;;;;5056440;28;20183;-75
2022/03/07 12:31:01;;;;;;;4.53;4.10;;;3.40;88.50;;;;;;5051905;28;20187;-75
2022/03/07 12:33:27;;;;;;;3.70;3.20;;;3.30;88.10;;;;;;5056077;28;20778;-75
2022/03/07 12:36:09;;;;;;;6.80;4.57;;;3.20;87.80;;;;;;5056540;28;20189;-75
2022/03/07 12:38:46;;;;;;;5.03;4.53;;;3.20;88.30;;;;;;5049103;28;20183;-75
2022/03/07 12:41:13;;;;;;;5.73;5.20;;;3.10;88.30;;;;;;5054173;28;20239;-75
2022/03/07 12:43:39;;;;;;;5.90;5.40;;;3.10;88.70;;;;;;5052870;28;20783;-76
2022/03/07 12:46:05;;;;;;;11.63;6.20;;;3.00;88.90;;;;;;5057203;28;20203;-75
2022/03/07 12:48:45;;;;;;;8.17;5.23;;;2.90;89.30;;;;;;5057453;28;20255;-75
2022/03/07 12:51:22;;;;;;;7.50;5.53;;;2.80;89.50;;;;;;5051980;28;20193;-75
2022/03/07 12:53:53;;;;;;;5.20;4.70;;;2.80;89.80;;;;;;5056219;28;20183;-75
2022/03/07 12:56:22;;;;;;;6.53;4.00;;;2.70;90.00;;;;;;5047952;28;20634;-75